Portada
METAR-TAF:

METAR-TAF

Aeroports :

Xarm al xeic, Egipte

latitud: 27-58N, longitud: 034-23E, altitud: 50 m

Observació

L'informe es va fer fa 1 hora i 13 minuts, a les 13:00 UTC
Vent 10 kt del Nord/Nord-Est
Temperatura 27°C
Humitat 42%
Pressió 1010 hPa
Visibilitat 10 km o més
sense núvols per sota de 1500 mi sense presència de cumulonimbus.

METAR: HESH 071300Z 03010KT CAVOK 27/13 Q1010 NOSIG

Hora: 16:13 (14:13 UTC)

Pronòstic

L'informe es va fer fa 3 hores i 13 minuts, a les 11:00 UTC
Pronòstic vàlid del 07 a les 12 UTC al 08 a les 18 UTC
Vent 8 kt del Nord amb ràfegues de 18 kt
Visibilitat 10 km o més
sense núvols per sota de 1500 mi sense presència de cumulonimbus.
Temporalment
l' 07 a les 12 UTC al 07 a les 18 UTC
Visibilitat: 4000 m
sorra

TAF: HESH 071100Z 0712/0818 01008G18KT CAVOK TEMPO 0712/0718 4000 SA NSC

Observacions i pronòstics meteorològics de més de 4000 aeroports (METAR i TAF).

Les estacions disponibles són els punts grocs i vermells al mapa.

Posi el ratolí al punt desitjat per veure el nom de l'estació.

Feu clic per veure les observacions i els pronòstics meteorològics.

Per canviar el mapa: feu clic els botons verds amb una creu de color negre per apropar; al botó verd amb un guió per allunyar la imatge; o en les fletxes verdes per a mapes adjacents.


METAR-TAF: